Time;durP1;ratioP1;P1;durP2;ratioP2;P2;SDS_P1;SDS_P2;PMS_P1;PMS_P2;Temp;Humidity;BMP_temperature;BMP_pressure;BME280_temperature;BME280_humidity;BME280_pressure;Samples;Min_cycle;Max_cycle;Signal;HPM_P1;HPM_P2
2021/06/08 00:00:34;;;;;;;55.77;28.50;;;18.00;98.70;;;;;;5039857;28;20827;-75
2021/06/08 00:03:01;;;;;;;52.60;28.93;;;18.00;99.10;;;;;;5034118;28;20542;-74
2021/06/08 00:05:27;;;;;;;57.30;29.67;;;18.00;99.00;;;;;;5033175;28;20187;-77
2021/06/08 00:07:53;;;;;;;48.57;26.70;;;17.90;99.10;;;;;;5034337;28;20420;-72
2021/06/08 00:10:19;;;;;;;58.47;29.10;;;17.80;99.30;;;;;;5032626;28;20179;-74
2021/06/08 00:12:45;;;;;;;59.10;28.90;;;17.70;99.30;;;;;;5032937;28;20207;-74
2021/06/08 00:15:11;;;;;;;51.90;28.10;;;17.60;99.70;;;;;;5033945;28;20466;-76
2021/06/08 00:17:37;;;;;;;50.47;29.33;;;17.70;99.80;;;;;;5033650;28;20963;-76
2021/06/08 00:20:05;;;;;;;50.83;24.67;;;17.70;99.90;;;;;;5035942;28;20420;-75
2021/06/08 00:22:31;;;;;;;46.13;25.73;;;17.70;99.90;;;;;;5038655;28;20461;-75
2021/06/08 00:24:57;;;;;;;43.50;24.03;;;17.90;99.90;;;;;;5027487;28;20471;-75
2021/06/08 00:27:23;;;;;;;51.03;28.10;;;18.00;99.80;;;;;;5036313;28;20426;-77
2021/06/08 00:29:49;;;;;;;53.37;28.10;;;17.90;99.30;;;;;;5038874;28;20517;-74
2021/06/08 00:32:15;;;;;;;48.07;27.33;;;17.90;99.30;;;;;;5039352;28;20258;-75
2021/06/08 00:34:41;;;;;;;47.17;25.40;;;18.00;99.10;;;;;;5039345;28;20197;-74
2021/06/08 00:37:06;;;;;;;44.60;24.13;;;18.00;99.00;;;;;;5042291;28;20173;-76
2021/06/08 00:39:32;;;;;;;49.20;25.53;;;18.10;98.90;;;;;;5040814;28;20185;-74
2021/06/08 00:41:58;;;;;;;44.50;25.07;;;18.10;98.90;;;;;;5035571;28;20202;-74
2021/06/08 00:44:23;;;;;;;48.63;25.67;;;18.20;98.80;;;;;;5037856;28;20184;-73
2021/06/08 00:46:49;;;;;;;52.80;27.70;;;18.10;98.70;;;;;;5040435;28;20272;-76
2021/06/08 00:49:15;;;;;;;61.97;29.87;;;17.90;98.70;;;;;;5037780;28;20661;-75
2021/06/08 00:51:42;;;;;;;51.00;26.63;;;17.90;98.80;;;;;;5033581;28;20188;-76
2021/06/08 00:54:11;;;;;;;41.70;22.97;;;17.90;99.10;;;;;;5032299;28;21031;-75
2021/06/08 00:56:39;;;;;;;44.67;25.30;;;18.00;99.10;;;;;;5032061;28;20544;-75
2021/06/08 00:59:06;;;;;;;48.17;24.50;;;18.10;99.00;;;;;;5032068;28;20426;-75
2021/06/08 01:01:32;;;;;;;45.43;24.43;;;18.20;98.70;;;;;;5030084;28;20460;-76
2021/06/08 01:03:58;;;;;;;46.77;25.20;;;18.20;98.60;;;;;;5024075;28;20445;-75
2021/06/08 01:06:24;;;;;;;45.07;25.03;;;18.30;98.50;;;;;;5030605;28;20431;-75
2021/06/08 01:08:50;;;;;;;45.40;23.47;;;18.30;98.40;;;;;;5030833;28;20200;-76
2021/06/08 01:11:16;;;;;;;47.70;25.80;;;18.20;98.40;;;;;;5030604;28;20518;-77
2021/06/08 01:13:42;;;;;;;50.47;26.10;;;18.30;98.20;;;;;;5031995;28;20250;-75
2021/06/08 01:16:08;;;;;;;50.20;27.70;;;18.20;98.20;;;;;;5035159;28;20449;-75
2021/06/08 01:18:34;;;;;;;50.30;27.47;;;18.20;98.20;;;;;;5041644;28;20415;-75
2021/06/08 01:21:05;;;;;;;52.27;27.83;;;18.10;98.30;;;;;;5050954;28;20431;-75
2021/06/08 01:23:33;;;;;;;44.30;23.90;;;18.10;98.50;;;;;;5034989;28;20315;-77
2021/06/08 01:25:59;;;;;;;43.37;24.37;;;18.10;98.60;;;;;;5026774;28;20426;-75
2021/06/08 01:28:26;;;;;;;60.97;28.67;;;18.20;98.50;;;;;;5031700;28;20959;-74
2021/06/08 01:30:54;;;;;;;52.70;27.43;;;18.00;98.50;;;;;;5028736;28;20429;-76
2021/06/08 01:33:22;;;;;;;56.73;29.40;;;18.00;98.60;;;;;;5031749;28;20679;-77
2021/06/08 01:35:50;;;;;;;52.00;28.03;;;18.00;98.70;;;;;;5030152;28;20428;-74
2021/06/08 01:38:16;;;;;;;55.87;30.13;;;17.90;98.80;;;;;;5031451;28;20514;-75
2021/06/08 01:40:45;;;;;;;40.77;23.30;;;17.80;99.00;;;;;;5030351;28;20434;-75
2021/06/08 01:43:13;;;;;;;49.63;25.60;;;17.90;99.30;;;;;;5031258;28;20443;-75
2021/06/08 01:45:40;;;;;;;49.83;25.20;;;17.90;99.20;;;;;;5030128;28;20421;-75
2021/06/08 01:48:06;;;;;;;53.27;26.37;;;18.00;99.00;;;;;;5031879;28;20492;-74
2021/06/08 01:50:32;;;;;;;52.70;27.00;;;18.00;99.00;;;;;;5031960;28;20464;-75
2021/06/08 01:53:15;;;;;;;56.23;28.30;;;18.00;98.90;;;;;;5030413;28;20447;-74
2021/06/08 01:55:44;;;;;;;55.80;27.37;;;17.80;99.00;;;;;;5030248;28;20432;-74
2021/06/08 01:58:54;;;;;;;58.10;29.10;;;17.70;99.40;;;;;;5032891;28;20447;-74
2021/06/08 02:01:35;;;;;;;54.13;27.63;;;17.80;99.50;;;;;;5029736;28;20449;-73
2021/06/08 02:04:05;;;;;;;50.27;27.27;;;17.70;99.40;;;;;;5024643;28;20428;-75
2021/06/08 02:06:37;;;;;;;52.70;26.83;;;17.80;99.50;;;;;;5031938;28;20415;-74
2021/06/08 02:09:33;;;;;;;54.47;27.40;;;17.70;99.50;;;;;;5024488;28;20418;-74
2021/06/08 02:12:05;;;;;;;51.10;26.27;;;17.80;99.20;;;;;;5023174;28;20411;-74
2021/06/08 02:14:39;;;;;;;52.27;27.30;;;17.80;99.30;;;;;;5031596;28;20462;-76
2021/06/08 02:17:10;;;;;;;52.47;26.70;;;17.70;99.40;;;;;;5024860;28;20464;-75
2021/06/08 02:19:38;;;;;;;57.10;28.83;;;17.70;99.50;;;;;;5031165;28;20415;-75
2021/06/08 02:22:06;;;;;;;53.17;27.13;;;17.70;99.60;;;;;;5024463;28;20419;-76
2021/06/08 02:24:32;;;;;;;56.17;27.87;;;17.70;99.60;;;;;;5031259;28;21286;-75
2021/06/08 02:27:05;;;;;;;56.03;28.63;;;17.70;99.60;;;;;;5031376;28;20423;-75
2021/06/08 02:29:31;;;;;;;53.70;27.60;;;17.80;99.70;;;;;;5031228;28;20197;-75
2021/06/08 02:31:58;;;;;;;57.77;28.13;;;17.80;99.40;;;;;;5030481;28;20961;-74
2021/06/08 02:34:24;;;;;;;52.27;26.10;;;17.90;99.40;;;;;;5030871;28;20464;-75
2021/06/08 02:36:53;;;;;;;69.00;31.83;;;17.90;99.30;;;;;;5030989;28;20423;-74
2021/06/08 02:39:19;;;;;;;52.33;29.40;;;18.00;99.30;;;;;;5030030;28;20771;-74
2021/06/08 02:41:46;;;;;;;57.03;28.37;;;17.90;99.30;;;;;;5029365;28;20933;-76
2021/06/08 02:44:13;;;;;;;58.17;29.17;;;17.90;99.30;;;;;;5030790;28;20466;-76
2021/06/08 02:46:40;;;;;;;55.83;29.80;;;18.00;99.10;;;;;;5029714;28;20431;-74
2021/06/08 02:49:07;;;;;;;61.20;29.77;;;17.90;99.10;;;;;;5030819;28;20432;-77
2021/06/08 02:51:35;;;;;;;55.37;28.37;;;17.90;99.00;;;;;;5028709;28;20427;-75
2021/06/08 02:54:03;;;;;;;52.30;26.70;;;17.90;99.00;;;;;;5030938;28;20465;-76
2021/06/08 02:56:30;;;;;;;60.80;31.57;;;17.90;99.00;;;;;;5031493;28;20788;-75
2021/06/08 02:58:56;;;;;;;58.93;30.13;;;17.80;99.10;;;;;;5030991;28;20888;-75
2021/06/08 03:01:22;;;;;;;58.67;28.90;;;17.70;99.20;;;;;;5030838;28;20486;-76
2021/06/08 03:03:51;;;;;;;62.30;32.03;;;17.70;99.40;;;;;;5029681;28;20447;-77
2021/06/08 03:06:26;;;;;;;60.17;30.83;;;17.60;99.80;;;;;;5031215;28;20190;-77
2021/06/08 03:09:06;;;;;;;52.93;26.60;;;17.60;99.90;;;;;;5029902;28;20445;-76
2021/06/08 03:11:40;;;;;;;56.10;26.63;;;17.60;99.90;;;;;;5030778;28;20823;-77
2021/06/08 03:14:09;;;;;;;58.40;28.07;;;17.70;99.90;;;;;;5029617;28;20498;-76
2021/06/08 03:16:41;;;;;;;57.43;30.60;;;17.80;99.80;;;;;;5028438;28;20933;-74
2021/06/08 03:19:09;;;;;;;61.03;30.43;;;17.90;99.50;;;;;;5030821;28;20469;-75
2021/06/08 03:21:41;;;;;;;56.60;29.63;;;17.80;99.40;;;;;;5030919;28;20779;-76
2021/06/08 03:24:12;;;;;;;59.63;32.70;;;17.80;99.40;;;;;;5031185;28;20472;-76
2021/06/08 03:26:39;;;;;;;60.63;29.00;;;17.60;99.70;;;;;;5027480;28;20830;-77
2021/06/08 03:29:09;;;;;;;62.57;31.33;;;17.60;99.90;;;;;;5030936;28;20534;-75
2021/06/08 03:31:40;;;;;;;59.50;29.30;;;17.50;99.90;;;;;;5029378;28;20942;-75
2021/06/08 03:34:07;;;;;;;54.03;29.60;;;17.50;99.90;;;;;;5030684;28;20612;-76
2021/06/08 03:36:34;;;;;;;63.60;31.90;;;17.60;99.90;;;;;;5030447;28;20422;-76
2021/06/08 03:39:01;;;;;;;64.70;33.60;;;17.50;99.90;;;;;;5030536;28;20795;-73
2021/06/08 03:41:28;;;;;;;66.93;33.20;;;17.40;99.90;;;;;;5029929;28;20515;-76
2021/06/08 03:43:55;;;;;;;62.80;31.00;;;17.30;99.90;;;;;;5029283;28;20996;-75
2021/06/08 03:46:25;;;;;;;59.00;28.83;;;17.40;99.90;;;;;;5029852;28;20564;-75
2021/06/08 03:49:01;;;;;;;67.30;35.53;;;17.40;99.90;;;;;;5031591;28;20455;-74
2021/06/08 03:51:31;;;;;;;58.87;29.17;;;17.30;99.90;;;;;;5033548;28;20459;-76
2021/06/08 03:54:00;;;;;;;67.73;34.50;;;17.30;99.90;;;;;;5040019;28;20638;-77
2021/06/08 03:56:28;;;;;;;67.30;30.93;;;17.30;99.90;;;;;;5043620;28;20447;-75
2021/06/08 03:58:56;;;;;;;59.10;29.70;;;17.40;99.90;;;;;;5043132;28;20416;-75
2021/06/08 04:01:23;;;;;;;56.20;29.50;;;17.50;99.90;;;;;;5042059;28;20431;-74
2021/06/08 04:03:50;;;;;;;60.27;30.67;;;17.50;99.90;;;;;;5039844;28;20461;-76
2021/06/08 04:06:20;;;;;;;72.30;33.07;;;17.60;99.90;;;;;;5040625;28;20519;-76
2021/06/08 04:08:47;;;;;;;61.00;32.70;;;17.70;99.90;;;;;;5040246;28;20432;-75
2021/06/08 04:11:16;;;;;;;54.33;29.63;;;17.50;99.90;;;;;;5042790;28;20422;-74
2021/06/08 04:13:42;;;;;;;53.23;28.63;;;17.60;99.90;;;;;;5041827;28;20469;-75
2021/06/08 04:16:08;;;;;;;58.87;29.50;;;17.50;99.90;;;;;;5036001;28;20453;-76
2021/06/08 04:18:36;;;;;;;57.10;29.87;;;17.50;99.90;;;;;;5034539;28;20190;-76
2021/06/08 04:21:03;;;;;;;56.33;28.53;;;17.40;99.90;;;;;;5033900;28;20463;-76
2021/06/08 04:23:29;;;;;;;57.03;29.07;;;17.40;99.90;;;;;;5043681;28;20459;-77
2021/06/08 04:25:57;;;;;;;67.33;31.17;;;17.50;99.90;;;;;;5048848;28;20419;-76
2021/06/08 04:28:24;;;;;;;61.77;32.17;;;17.40;99.90;;;;;;5041791;28;20447;-75
2021/06/08 04:30:51;;;;;;;53.60;28.10;;;17.40;99.90;;;;;;5039126;28;20418;-75
2021/06/08 04:33:29;;;;;;;59.60;31.77;;;17.40;99.90;;;;;;5037209;28;20443;-75
2021/06/08 04:35:55;;;;;;;58.57;30.17;;;17.50;99.90;;;;;;5034409;28;20433;-76
2021/06/08 04:38:22;;;;;;;56.20;28.10;;;17.50;99.90;;;;;;5037026;28;20426;-74
2021/06/08 04:40:51;;;;;;;56.47;28.67;;;17.50;99.90;;;;;;5042493;28;20436;-75
2021/06/08 04:43:24;;;;;;;67.10;30.90;;;17.50;99.90;;;;;;5043484;28;20463;-77
2021/06/08 04:45:51;;;;;;;65.03;31.47;;;17.50;99.90;;;;;;5035298;28;20415;-77
2021/06/08 04:48:17;;;;;;;67.87;32.87;;;17.50;99.90;;;;;;5033758;28;20751;-75
2021/06/08 04:50:43;;;;;;;57.10;29.20;;;17.50;99.90;;;;;;5031328;28;20515;-76
2021/06/08 04:53:08;;;;;;;58.87;30.33;;;17.50;99.90;;;;;;5033386;28;20434;-75
2021/06/08 04:55:34;;;;;;;58.73;31.60;;;17.50;99.90;;;;;;5033936;28;20563;-75
2021/06/08 04:58:00;;;;;;;63.93;31.97;;;17.40;99.90;;;;;;5033814;28;20200;-74
2021/06/08 05:00:56;;;;;;;61.60;30.00;;;17.40;99.90;;;;;;5033780;28;20185;-74
2021/06/08 05:03:27;;;;;;;62.97;31.80;;;17.40;99.90;;;;;;4968972;28;20218;-75
2021/06/08 05:05:57;;;;;;;58.33;30.03;;;17.50;99.90;;;;;;5032609;28;20471;-75
2021/06/08 05:08:29;;;;;;;49.07;26.30;;;17.50;99.90;;;;;;5030416;28;20434;-75
2021/06/08 05:11:01;;;;;;;61.33;28.47;;;17.70;99.90;;;;;;5032015;28;20426;-74
2021/06/08 05:13:29;;;;;;;57.97;29.40;;;17.70;99.50;;;;;;5033126;28;20966;-77
2021/06/08 05:15:57;;;;;;;55.33;29.30;;;17.70;99.60;;;;;;5033181;28;20498;-76
2021/06/08 05:18:24;;;;;;;53.43;26.73;;;17.80;99.40;;;;;;5033112;28;20422;-76
2021/06/08 05:20:51;;;;;;;54.30;27.03;;;17.90;99.30;;;;;;5032732;28;20426;-76
2021/06/08 05:23:17;;;;;;;57.13;28.50;;;17.90;99.10;;;;;;5033228;28;20475;-76
2021/06/08 05:25:48;;;;;;;51.00;26.83;;;17.90;99.00;;;;;;5033213;28;20432;-75
2021/06/08 05:28:14;;;;;;;55.13;27.03;;;18.00;99.10;;;;;;5026091;28;20445;-75
2021/06/08 05:30:41;;;;;;;57.87;29.80;;;18.00;98.50;;;;;;5033233;28;20425;-77
2021/06/08 05:33:10;;;;;;;56.60;30.50;;;17.70;98.70;;;;;;5033031;28;20442;-74
2021/06/08 05:35:36;;;;;;;55.10;28.20;;;17.60;99.30;;;;;;5033097;28;20512;-75
2021/06/08 05:38:07;;;;;;;55.30;30.10;;;17.50;99.70;;;;;;5033076;28;20426;-76
2021/06/08 05:40:35;;;;;;;59.23;30.70;;;17.50;99.90;;;;;;5031492;28;20512;-75
2021/06/08 05:43:01;;;;;;;56.40;30.27;;;17.50;99.90;;;;;;5033707;28;20521;-76
2021/06/08 05:45:30;;;;;;;59.63;30.00;;;17.50;99.90;;;;;;5033015;28;20926;-76
2021/06/08 05:47:56;;;;;;;51.60;26.67;;;17.50;99.90;;;;;;5033130;28;20187;-76
2021/06/08 05:50:22;;;;;;;59.13;30.50;;;17.60;99.90;;;;;;5033313;28;20430;-75
2021/06/08 05:52:49;;;;;;;51.10;28.87;;;17.50;99.80;;;;;;5032944;28;20436;-75
2021/06/08 05:55:16;;;;;;;60.10;30.73;;;17.60;99.90;;;;;;5033003;28;20550;-76
2021/06/08 05:57:46;;;;;;;61.57;29.93;;;17.70;99.80;;;;;;5032877;28;20505;-78
2021/06/08 06:00:12;;;;;;;57.10;29.13;;;17.70;99.70;;;;;;5032529;28;20434;-77
2021/06/08 06:02:39;;;;;;;55.10;29.53;;;17.80;99.50;;;;;;5032146;28;20534;-75
2021/06/08 06:05:06;;;;;;;60.47;31.90;;;17.80;99.30;;;;;;5032377;28;20932;-74
2021/06/08 06:07:33;;;;;;;59.60;31.67;;;17.80;99.10;;;;;;5032596;28;20431;-73
2021/06/08 06:10:00;;;;;;;61.70;31.63;;;17.70;99.20;;;;;;5032239;28;20823;-76
2021/06/08 06:12:26;;;;;;;60.97;32.77;;;17.50;99.60;;;;;;5032296;28;20999;-75
2021/06/08 06:15:01;;;;;;;57.30;30.30;;;17.50;99.90;;;;;;5032311;28;20460;-75
2021/06/08 06:17:41;;;;;;;55.70;29.37;;;17.60;99.90;;;;;;5031810;28;20420;-76
2021/06/08 06:20:11;;;;;;;54.93;31.40;;;17.60;99.90;;;;;;5025728;28;20424;-77
2021/06/08 06:22:38;;;;;;;53.80;30.20;;;17.50;99.90;;;;;;5031065;28;20474;-77
2021/06/08 06:25:05;;;;;;;56.90;30.20;;;17.60;99.90;;;;;;5032819;28;20425;-76
2021/06/08 06:27:37;;;;;;;55.50;30.43;;;17.70;99.70;;;;;;5032492;28;20495;-75
2021/06/08 06:30:05;;;;;;;58.03;32.00;;;17.70;99.60;;;;;;5023381;28;20428;-75
2021/06/08 06:32:31;;;;;;;47.07;26.57;;;17.80;99.40;;;;;;5032363;28;20446;-75
2021/06/08 06:34:57;;;;;;;54.37;28.57;;;17.90;99.50;;;;;;5033186;28;20458;-76
2021/06/08 06:37:27;;;;;;;56.70;31.20;;;18.00;99.20;;;;;;5032681;28;20423;-75
2021/06/08 06:39:55;;;;;;;56.00;27.53;;;17.90;98.60;;;;;;5031669;28;20197;-76
2021/06/08 06:42:25;;;;;;;53.40;29.20;;;17.80;99.00;;;;;;5032680;28;20438;-76
2021/06/08 06:44:52;;;;;;;57.70;31.10;;;17.80;99.10;;;;;;5032091;28;20420;-76
2021/06/08 06:47:18;;;;;;;62.40;27.83;;;17.80;98.90;;;;;;5032256;28;20427;-76
2021/06/08 06:49:44;;;;;;;58.83;31.13;;;17.80;99.10;;;;;;5032183;28;20438;-77
2021/06/08 06:52:11;;;;;;;59.57;29.60;;;17.80;99.00;;;;;;5030637;28;20419;-74
2021/06/08 06:54:38;;;;;;;54.07;30.07;;;17.70;99.20;;;;;;5032245;28;20953;-75
2021/06/08 06:57:05;;;;;;;51.87;27.10;;;17.80;99.40;;;;;;5031745;28;20447;-76
2021/06/08 06:59:31;;;;;;;61.83;31.20;;;18.00;99.50;;;;;;5047653;28;20454;-76
2021/06/08 07:01:58;;;;;;;56.03;29.73;;;18.10;99.20;;;;;;5022302;28;20510;-75
2021/06/08 07:04:24;;;;;;;52.20;27.20;;;18.10;98.70;;;;;;5031360;28;20470;-77
2021/06/08 07:06:52;;;;;;;50.90;26.63;;;18.10;98.40;;;;;;5032563;28;20431;-76
2021/06/08 07:09:23;;;;;;;53.20;27.70;;;18.10;98.00;;;;;;5033240;28;20427;-76
2021/06/08 07:11:51;;;;;;;48.83;26.10;;;18.30;97.80;;;;;;5033274;28;20422;-77
2021/06/08 07:14:22;;;;;;;54.60;28.50;;;18.40;97.30;;;;;;5031335;28;20487;-77
2021/06/08 07:16:49;;;;;;;49.67;25.67;;;18.40;97.00;;;;;;5031478;28;21036;-78
2021/06/08 07:19:17;;;;;;;49.63;27.20;;;18.40;97.20;;;;;;5032718;28;20952;-76
2021/06/08 07:21:43;;;;;;;51.87;28.10;;;18.60;96.90;;;;;;5032124;28;20420;-75
2021/06/08 07:24:13;;;;;;;54.63;27.87;;;18.60;96.40;;;;;;5031861;28;20991;-76
2021/06/08 07:26:40;;;;;;;48.83;26.73;;;18.60;96.50;;;;;;5030239;28;20427;-76
2021/06/08 07:29:12;;;;;;;55.30;27.87;;;18.70;95.90;;;;;;5034043;28;20454;-76
2021/06/08 07:32:05;;;;;;;54.27;29.40;;;18.60;95.50;;;;;;5035670;28;20446;-77
2021/06/08 07:34:49;;;;;;;53.43;29.00;;;18.50;95.70;;;;;;5034457;28;20593;-77
2021/06/08 07:37:19;;;;;;;53.00;27.40;;;18.40;96.10;;;;;;5031159;28;20422;-75
2021/06/08 07:39:50;;;;;;;56.50;30.27;;;18.30;96.50;;;;;;5036653;28;20422;-76
2021/06/08 07:42:21;;;;;;;58.30;29.50;;;18.30;96.30;;;;;;5039251;28;20519;-77
2021/06/08 07:44:56;;;;;;;57.00;30.87;;;18.40;96.50;;;;;;5044732;28;20427;-76
2021/06/08 07:47:24;;;;;;;50.97;28.30;;;18.50;96.30;;;;;;5044145;28;20414;-76
2021/06/08 07:49:52;;;;;;;50.30;29.47;;;18.60;95.80;;;;;;5043069;28;20511;-76
2021/06/08 07:52:19;;;;;;;57.90;31.00;;;18.60;95.40;;;;;;5047618;28;20434;-76
2021/06/08 07:54:47;;;;;;;71.47;29.30;;;18.50;95.90;;;;;;5047072;28;20471;-76
2021/06/08 07:57:13;;;;;;;57.57;30.30;;;18.70;95.80;;;;;;5038731;28;20433;-76
2021/06/08 07:59:42;;;;;;;58.20;29.00;;;18.60;95.50;;;;;;5033760;28;20434;-75
2021/06/08 08:02:12;;;;;;;49.67;28.60;;;18.40;96.10;;;;;;5035390;28;20478;-76
2021/06/08 08:04:39;;;;;;;53.80;28.00;;;18.50;96.40;;;;;;5033123;28;20432;-76
2021/06/08 08:07:06;;;;;;;55.10;28.67;;;18.50;96.30;;;;;;5033541;28;20558;-76
2021/06/08 08:09:32;;;;;;;55.90;27.60;;;18.70;95.90;;;;;;5031978;28;20805;-74
2021/06/08 08:11:58;;;;;;;54.43;28.77;;;18.80;95.40;;;;;;5029624;28;20420;-76
2021/06/08 08:14:26;;;;;;;48.77;27.70;;;18.80;95.20;;;;;;5053017;28;20834;-76
2021/06/08 08:16:54;;;;;;;48.87;28.70;;;18.70;95.20;;;;;;5036246;28;20434;-76
2021/06/08 08:19:21;;;;;;;54.50;28.30;;;18.80;95.10;;;;;;5037645;28;20443;-75
2021/06/08 08:21:48;;;;;;;55.50;30.17;;;18.50;95.90;;;;;;5035367;28;20435;-75
2021/06/08 08:24:13;;;;;;;52.13;29.07;;;18.60;95.90;;;;;;5040060;28;20486;-76
2021/06/08 08:26:39;;;;;;;54.33;29.00;;;18.70;95.80;;;;;;5034196;28;20896;-74
2021/06/08 08:29:06;;;;;;;58.43;31.17;;;18.80;95.60;;;;;;5033295;28;20243;-76
2021/06/08 08:31:32;;;;;;;57.47;32.10;;;18.70;95.20;;;;;;5037282;28;20231;-76
2021/06/08 08:33:59;;;;;;;65.27;33.60;;;18.40;95.30;;;;;;5035420;28;20548;-76
2021/06/08 08:36:29;;;;;;;61.63;29.47;;;18.30;95.80;;;;;;5035789;28;20440;-74
2021/06/08 08:38:56;;;;;;;54.27;29.90;;;18.30;96.20;;;;;;5031829;28;21278;-73
2021/06/08 08:41:22;;;;;;;56.17;29.33;;;18.50;95.80;;;;;;5031513;28;20510;-76
2021/06/08 08:43:50;;;;;;;60.00;32.10;;;18.70;95.50;;;;;;5033734;28;20450;-74
2021/06/08 08:46:18;;;;;;;59.00;32.13;;;18.70;94.60;;;;;;5035037;28;20420;-76
2021/06/08 08:48:44;;;;;;;64.20;31.60;;;18.80;94.70;;;;;;5034373;28;20438;-76
2021/06/08 08:51:15;;;;;;;59.23;34.23;;;18.80;94.60;;;;;;5032437;28;20422;-75
2021/06/08 08:53:43;;;;;;;66.23;34.20;;;18.60;94.70;;;;;;5033277;28;20442;-76
2021/06/08 08:56:09;;;;;;;63.97;33.13;;;18.70;95.00;;;;;;5032062;28;20427;-74
2021/06/08 08:58:36;;;;;;;52.90;29.00;;;18.70;95.00;;;;;;5030780;28;20471;-75
2021/06/08 09:01:02;;;;;;;58.70;29.40;;;19.00;94.80;;;;;;5029890;28;20539;-74
2021/06/08 09:03:28;;;;;;;55.20;31.10;;;19.30;93.90;;;;;;5030982;28;20531;-76
2021/06/08 09:05:59;;;;;;;55.33;28.03;;;19.50;93.40;;;;;;5032100;28;20426;-76
2021/06/08 09:08:25;;;;;;;53.30;28.27;;;19.50;92.80;;;;;;5030578;28;20185;-75
2021/06/08 09:10:54;;;;;;;51.77;27.50;;;19.80;92.40;;;;;;5029391;28;20424;-75
2021/06/08 09:13:20;;;;;;;52.73;28.03;;;20.10;91.90;;;;;;5031644;28;20467;-75
2021/06/08 09:15:46;;;;;;;59.57;33.27;;;20.30;91.30;;;;;;5031095;28;20474;-75
2021/06/08 09:18:13;;;;;;;59.93;32.23;;;20.30;90.40;;;;;;5031131;28;20424;-76
2021/06/08 09:20:39;;;;;;;64.43;32.60;;;19.90;91.00;;;;;;5029371;28;20458;-75
2021/06/08 09:23:07;;;;;;;53.50;30.73;;;19.80;91.40;;;;;;5030913;28;20949;-75
2021/06/08 09:25:39;;;;;;;59.43;32.40;;;20.00;91.10;;;;;;5030233;28;20292;-76
2021/06/08 09:28:30;;;;;;;55.37;31.67;;;20.10;90.40;;;;;;5030004;28;20458;-75
2021/06/08 09:30:59;;;;;;;57.87;32.20;;;20.00;90.80;;;;;;5030167;28;20853;-75
2021/06/08 09:33:26;;;;;;;55.40;31.77;;;20.00;90.50;;;;;;5031063;28;20443;-75
2021/06/08 09:35:57;;;;;;;56.97;30.03;;;20.20;90.30;;;;;;5029773;28;20526;-76
2021/06/08 09:38:36;;;;;;;49.50;28.00;;;20.10;90.40;;;;;;5030793;28;20458;-75
2021/06/08 09:41:17;;;;;;;55.20;29.97;;;20.30;90.40;;;;;;5029947;28;20431;-76
2021/06/08 09:43:55;;;;;;;56.60;31.77;;;20.30;89.50;;;;;;5028273;28;20501;-74
2021/06/08 09:46:22;;;;;;;53.90;29.00;;;20.10;90.00;;;;;;5023457;28;20447;-74
2021/06/08 09:48:54;;;;;;;57.90;31.83;;;20.00;90.60;;;;;;5029264;28;20420;-76
2021/06/08 09:51:21;;;;;;;63.10;32.57;;;20.40;90.10;;;;;;5028450;28;20417;-76
2021/06/08 09:53:47;;;;;;;51.63;28.17;;;20.40;89.30;;;;;;5030537;28;20455;-75
2021/06/08 09:56:14;;;;;;;55.90;30.97;;;20.70;89.50;;;;;;5030855;28;20455;-76
2021/06/08 09:58:45;;;;;;;55.83;28.83;;;21.00;87.70;;;;;;5030319;28;20427;-75
2021/06/08 10:01:16;;;;;;;55.33;32.40;;;21.00;87.70;;;;;;5029778;28;20515;-76
2021/06/08 10:03:49;;;;;;;52.97;29.77;;;21.30;86.30;;;;;;5031234;28;20558;-75
2021/06/08 10:06:20;;;;;;;47.63;26.90;;;21.30;86.20;;;;;;5029437;28;20843;-75
2021/06/08 10:08:55;;;;;;;52.90;30.80;;;21.60;86.00;;;;;;5030892;28;20416;-75
2021/06/08 10:11:41;;;;;;;52.43;31.50;;;21.50;83.60;;;;;;5029926;28;20466;-75
2021/06/08 10:14:18;;;;;;;57.67;33.10;;;21.50;84.70;;;;;;5024138;28;20455;-76
2021/06/08 10:16:45;;;;;;;50.40;29.80;;;21.00;85.00;;;;;;5028978;28;20423;-75
2021/06/08 10:19:23;;;;;;;45.00;26.53;;;20.90;85.90;;;;;;5027882;28;20518;-77
2021/06/08 10:21:49;;;;;;;42.57;24.67;;;21.50;85.30;;;;;;5027398;28;20846;-75
2021/06/08 10:24:20;;;;;;;48.23;29.73;;;22.00;83.70;;;;;;5032012;28;20473;-76
2021/06/08 10:26:50;;;;;;;50.27;29.20;;;21.90;82.50;;;;;;5030821;28;20473;-76
2021/06/08 10:29:17;;;;;;;51.10;30.27;;;21.60;84.10;;;;;;5030335;28;20814;-75
2021/06/08 10:31:43;;;;;;;42.67;27.73;;;21.40;84.60;;;;;;5029333;28;20423;-76
2021/06/08 10:34:11;;;;;;;45.23;27.80;;;21.30;86.20;;;;;;5030618;28;20546;-76
2021/06/08 10:36:40;;;;;;;52.93;31.73;;;21.70;84.90;;;;;;5030283;28;20420;-75
2021/06/08 10:39:10;;;;;;;52.23;28.73;;;21.80;82.50;;;;;;5029777;28;20803;-76
2021/06/08 10:41:38;;;;;;;45.33;27.03;;;22.00;82.40;;;;;;5029439;28;20965;-75
2021/06/08 10:44:05;;;;;;;44.77;25.90;;;21.90;83.00;;;;;;5030484;28;20448;-75
2021/06/08 10:46:48;;;;;;;41.07;25.00;;;22.20;82.50;;;;;;5030416;28;20470;-75
2021/06/08 10:49:14;;;;;;;46.03;29.57;;;22.40;81.80;;;;;;5023615;28;20415;-76
2021/06/08 10:52:00;;;;;;;47.17;29.17;;;22.40;80.80;;;;;;5027990;28;20805;-75
2021/06/08 10:54:26;;;;;;;55.30;29.57;;;21.90;81.20;;;;;;5025798;28;20216;-75
2021/06/08 10:56:59;;;;;;;42.53;26.23;;;22.00;81.70;;;;;;5030133;28;21016;-75
2021/06/08 10:59:40;;;;;;;41.50;25.00;;;22.30;80.30;;;;;;5028705;28;20428;-76
2021/06/08 11:02:08;;;;;;;42.27;25.53;;;22.60;80.20;;;;;;5029588;28;20458;-76
2021/06/08 11:04:54;;;;;;;49.03;25.70;;;23.10;77.60;;;;;;5036601;28;20467;-76
2021/06/08 11:07:50;;;;;;;46.07;26.70;;;23.00;77.30;;;;;;5032048;28;20448;-75
2021/06/08 11:10:28;;;;;;;41.23;25.70;;;22.90;77.10;;;;;;5028565;28;20422;-76
2021/06/08 11:13:24;;;;;;;44.30;25.00;;;23.20;77.00;;;;;;5032093;28;20797;-75
2021/06/08 11:15:51;;;;;;;44.27;25.50;;;23.20;76.70;;;;;;5018816;28;20478;-76
2021/06/08 11:18:19;;;;;;;40.90;25.77;;;23.30;75.90;;;;;;5036330;28;20422;-76
2021/06/08 11:20:47;;;;;;;43.23;27.50;;;23.20;75.50;;;;;;5036822;28;20424;-77
2021/06/08 11:23:35;;;;;;;43.87;26.80;;;22.80;75.90;;;;;;5043113;28;20464;-75
2021/06/08 11:26:02;;;;;;;43.63;27.20;;;22.50;78.00;;;;;;5036539;28;20422;-77
2021/06/08 11:28:53;;;;;;;45.30;27.60;;;22.40;78.10;;;;;;5042500;28;20413;-75
2021/06/08 11:31:27;;;;;;;41.20;26.57;;;22.30;78.90;;;;;;5046454;28;20432;-76
2021/06/08 11:34:05;;;;;;;39.90;24.40;;;22.20;79.70;;;;;;5041411;28;20497;-76
2021/06/08 11:36:34;;;;;;;49.10;29.30;;;22.30;79.90;;;;;;5049333;28;20416;-76
2021/06/08 11:39:23;;;;;;;44.17;28.30;;;22.60;79.00;;;;;;5042580;28;20521;-76
2021/06/08 11:42:04;;;;;;;44.37;26.60;;;22.90;78.60;;;;;;5046055;28;20504;-74
2021/06/08 11:44:29;;;;;;;48.83;29.57;;;22.90;79.20;;;;;;5040243;28;20432;-75
2021/06/08 11:46:59;;;;;;;45.53;28.73;;;23.00;77.60;;;;;;5049369;28;20428;-76
2021/06/08 11:49:25;;;;;;;46.10;28.80;;;22.60;78.70;;;;;;5050185;28;20416;-76
2021/06/08 11:52:06;;;;;;;47.80;28.10;;;22.20;80.90;;;;;;5040871;28;20438;-75
2021/06/08 11:54:31;;;;;;;39.37;26.07;;;22.10;81.50;;;;;;5037483;28;20578;-76
2021/06/08 11:57:03;;;;;;;44.50;28.33;;;22.50;81.10;;;;;;5036306;28;20493;-75
2021/06/08 11:59:56;;;;;;;55.37;30.43;;;22.60;79.70;;;;;;5037855;28;20178;-76
2021/06/08 12:02:37;;;;;;;56.97;30.67;;;22.10;81.20;;;;;;5030684;28;20958;-76
2021/06/08 12:05:21;;;;;;;48.67;30.10;;;21.70;82.50;;;;;;5038536;28;20424;-75
2021/06/08 12:08:11;;;;;;;47.43;28.60;;;21.90;81.70;;;;;;5038790;28;20435;-76
2021/06/08 12:10:43;;;;;;;48.10;27.97;;;21.60;82.70;;;;;;5037077;28;20515;-75
2021/06/08 12:13:10;;;;;;;49.80;30.50;;;22.10;81.70;;;;;;5039324;28;20826;-74
2021/06/08 12:15:39;;;;;;;42.23;26.90;;;22.10;80.50;;;;;;5040047;28;20909;-74
2021/06/08 12:18:12;;;;;;;44.57;25.67;;;22.10;81.80;;;;;;5041503;28;20417;-76
2021/06/08 12:20:43;;;;;;;44.33;25.53;;;22.60;80.30;;;;;;5040938;28;20423;-76
2021/06/08 12:23:10;;;;;;;45.63;27.80;;;23.50;77.80;;;;;;5042978;28;20526;-75
2021/06/08 12:25:36;;;;;;;45.70;27.90;;;23.70;74.00;;;;;;5043634;28;20494;-76
2021/06/08 12:28:09;;;;;;;48.10;29.87;;;23.40;75.20;;;;;;5042384;28;20437;-76
2021/06/08 12:30:35;;;;;;;39.10;24.80;;;23.40;75.50;;;;;;5043797;28;20944;-76
2021/06/08 12:33:05;;;;;;;40.23;26.50;;;23.30;76.20;;;;;;5042918;28;20446;-75
2021/06/08 12:35:35;;;;;;;38.60;25.97;;;23.60;74.90;;;;;;5044755;28;20203;-75
2021/06/08 12:38:20;;;;;;;42.10;25.93;;;24.00;73.60;;;;;;5035741;28;20929;-75
2021/06/08 12:41:04;;;;;;;34.53;23.27;;;23.90;73.90;;;;;;5033016;28;20430;-76